Flight Track Log - Related Links

Times and Time Zones

All times are in EDT time to prevent confusion due to time zone crossing. See the RPA3196 flight status page for this flight to view local times or setup timezone preferences in your user account.

Time Position Orientation Groundspeed Altitude Reporting Facility
EDT Latitude Longitude Course Direction KTS MPH feet Rate Location/Type
Mon 09:34:48 AM 39.8667 -75.2833 37° Northeast 160 184 600  Level Philadelphia TRACON
Mon 09:36:30 AM 39.7756 -75.3222 198° South 241 277 4,600 2,571 Climbing New York Center
Mon 09:37:00 AM 39.8167 -74.8868 90° East  Level FlightAware Approximate
Mon 09:37:29 AM 39.7708 -75.2272 94° East 288 331 7,500  Level New York Center
Mon 09:38:00 AM 39.7972 -74.7692 105° East  Level FlightAware Approximate
Mon 09:38:37 AM 39.7667 -75.1000 92° East 320 368 10,600  Level Philadelphia TRACON
Mon 09:39:00 AM 39.8134 -74.6699 37° Northeast  Level FlightAware Approximate
Mon 09:40:00 AM 39.8871 -74.5963 37° Northeast  Level FlightAware Approximate
Mon 09:40:31 AM 39.7839 -74.8717 84° East 405 466 12,000  Level New York Center
Mon 09:41:29 AM 39.8078 -74.7189 78° East 405 466 13,700 2,050 Climbing New York Center
Mon 09:42:31 AM 39.8881 -74.6261 42° Northeast 366 421 16,100 2,050 Climbing New York Center
Mon 09:43:29 AM 39.9806 -74.5364 37° Northeast 379 436 17,800 1,650 Climbing New York Center
Mon 09:44:31 AM 40.0644 -74.4514 38° Northeast 404 465 19,400 1,707 Climbing New York Center
Mon 09:45:32 AM 40.1742 -74.3431 37° Northeast 438 504 21,300 1,780 Climbing New York Center
Mon 09:46:29 AM 40.2794 -74.2397 37° Northeast 460 529 22,900 1,475 Climbing New York Center
Mon 09:47:30 AM 40.3758 -74.1439 37° Northeast 481 554 24,200 1,377 Climbing New York Center
Mon 09:48:31 AM 40.5058 -74.0492 29° Northeast 486 559 25,700 988 Climbing New York Center
Mon 09:50:20 AM 40.7403 -73.9083 24° Northeast 482 555 27,000 462 Climbing Boston Center
Mon 09:51:20 AM 40.8700 -73.8756 11° North 474 545 27,000  Level Boston Center
Mon 09:52:20 AM 41.0058 -73.8428 10° North 480 552 27,000  Level Boston Center
Mon 09:53:20 AM 41.1417 -73.8181 North 487 560 27,000  Level Boston Center
Mon 09:54:20 AM 41.2772 -73.7936 North 487 560 27,000  Level Boston Center
Mon 09:55:20 AM 41.4089 -73.7658 North 482 555 27,000  Level Boston Center
Mon 09:56:20 AM 41.5447 -73.7408 North 482 555 27,000  Level Boston Center
Mon 09:57:20 AM 41.6783 -73.7131 North 482 555 27,000  Level Boston Center
Mon 09:58:20 AM 41.7975 -73.6933 North 487 560 27,000  Level Boston Center
Mon 09:59:20 AM 41.9289 -73.6708 North 480 552 27,000  Level Boston Center
Mon 10:00:20 AM 42.0794 -73.6372 North 490 564 27,000  Level Boston Center
Mon 10:01:20 AM 42.2131 -73.6117 North 490 564 27,000  Level Boston Center
Mon 10:02:20 AM 42.3156 -73.5856 11° North 485 558 27,000  Level Boston Center
Mon 10:03:20 AM 42.4614 -73.5658 North 480 552 27,000  Level Boston Center
Mon 10:04:20 AM 42.5931 -73.5400 North 480 552 27,000  Level Boston Center
Mon 10:05:20 AM 42.7267 -73.5142 North 480 552 27,000  Level Boston Center
Mon 10:06:20 AM 42.8667 -73.4825 North 473 544 27,000  Level Boston Center
Mon 10:07:20 AM 42.9836 -73.4589 North 466 536 27,000  Level Boston Center
Mon 10:08:20 AM 43.1297 -73.4272 North 471 542 27,000 -450 Level Boston Center
Mon 10:09:20 AM 43.2444 -73.4064 North 471 542 26,100 -1,500 Descending Boston Center
Mon 10:10:20 AM 43.3678 -73.3797 North 465 535 24,000 -1,950 Descending Boston Center
Mon 10:11:20 AM 43.4889 -73.3558 North 452 520 22,200 -2,450 Descending Boston Center
Mon 10:12:20 AM 43.6056 -73.3289 North 435 501 19,100 -2,900 Descending Boston Center
Mon 10:13:20 AM 43.7308 -73.3078 North 423 487 16,400 -2,450 Descending Boston Center
Mon 10:14:20 AM 43.8331 -73.2861 North 385 443 14,200 -2,150 Descending Boston Center
Mon 10:15:20 AM 43.9311 -73.2675 North 368 423 12,100 -1,650 Descending Boston Center
Mon 10:16:20 AM 44.0189 -73.2483 North 338 389 10,900 -1,500 Descending Boston Center
Mon 10:17:20 AM 44.0836 -73.2350 North 314 361 9,100 -2,400 Descending Boston Center
Mon 10:18:20 AM 44.1692 -73.2186 North 281 323 6,100 -2,650 Descending Boston Center
Mon 10:19:20 AM 44.2400 -73.2022 North 267 307 3,800 -1,200 Descending Boston Center
Mon 10:20:20 AM 44.2967 -73.1536 32° Northeast 245 282 3,700  Descending Boston Center
Mon 10:21:20 AM 44.3469 -73.1047 35° Northeast 225 259 3,800 100 Climbing Boston Center

Login

Don't have an account? Register now (free) for customized features, flight alerts, and more!